Time;durP1;ratioP1;P1;durP2;ratioP2;P2;SDS_P1;SDS_P2;PMS_P1;PMS_P2;Temp;Humidity;BMP_temperature;BMP_pressure;BME280_temperature;BME280_humidity;BME280_pressure;Samples;Min_cycle;Max_cycle;Signal;HPM_P1;HPM_P2
2023/04/27 00:02:28;;;;;;;11.93;5.50;;;16.50;90.70;;;;;;5093560;28;20391;-73
2023/04/27 00:05:37;;;;;;;16.30;6.03;;;16.00;90.50;;;;;;5093475;28;20047;-73
2023/04/27 00:08:41;;;;;;;11.75;5.93;;;14.60;88.90;;;;;;5093531;28;20047;-73
2023/04/27 00:11:45;;;;;;;9.18;5.60;;;15.30;89.00;;;;;;5093462;28;20387;-73
2023/04/27 00:14:49;;;;;;;12.73;6.43;;;15.00;89.20;;;;;;5093677;28;20047;-73
2023/04/27 00:17:54;;;;;;;11.65;5.70;;;15.90;89.70;;;;;;5093342;28;20050;-73
2023/04/27 00:20:58;;;;;;;16.38;5.30;;;15.40;89.20;;;;;;5093343;28;20585;-73
2023/04/27 00:24:01;;;;;;;10.30;5.72;;;15.30;88.50;;;;;;5093493;28;20043;-73
2023/04/27 00:27:05;;;;;;;10.32;4.80;;;15.40;88.70;;;;;;5093199;28;20074;-73
2023/04/27 00:30:10;;;;;;;12.13;4.93;;;15.20;87.40;;;;;;5092105;28;20055;-73
2023/04/27 00:33:15;;;;;;;13.32;6.03;;;15.60;89.10;;;;;;5093239;28;20051;-73
2023/04/27 00:36:19;;;;;;;9.82;4.93;;;15.10;88.70;;;;;;5093092;28;20035;-73
2023/04/27 00:39:25;;;;;;;8.93;4.32;;;14.00;87.60;;;;;;5092944;28;20047;-73
2023/04/27 00:42:29;;;;;;;12.55;4.45;;;16.00;88.70;;;;;;5092759;28;20494;-73
2023/04/27 00:45:40;;;;;;;6.90;3.40;;;15.20;87.00;;;;;;5092964;28;20044;-73
2023/04/27 00:48:44;;;;;;;9.93;3.80;;;;;;;;;;5091925;28;20039;-73
2023/04/27 00:51:48;;;;;;;10.30;4.07;;;15.10;86.50;;;;;;5092788;28;20321;-73
2023/04/27 00:54:52;;;;;;;10.52;3.60;;;15.00;86.30;;;;;;5091916;28;20043;-73
2023/04/27 00:57:57;;;;;;;8.85;4.05;;;16.80;87.10;;;;;;5091451;28;20059;-73
2023/04/27 01:01:02;;;;;;;10.60;4.32;;;13.90;86.10;;;;;;5092717;28;20050;-73
2023/04/27 01:04:07;;;;;;;9.20;4.10;;;15.10;87.40;;;;;;5091430;28;20050;-73
2023/04/27 01:07:11;;;;;;;8.25;4.13;;;;;;;;;;5092361;28;20055;-73
2023/04/27 01:10:15;;;;;;;8.18;4.05;;;14.30;87.70;;;;;;5092233;28;20048;-73
2023/04/27 01:13:19;;;;;;;10.85;3.88;;;16.90;89.40;;;;;;5092057;28;20039;-72
2023/04/27 01:16:23;;;;;;;11.73;4.28;;;;;;;;;;5091309;28;20055;-72
2023/04/27 01:19:27;;;;;;;11.70;4.05;;;15.10;88.80;;;;;;5092064;28;20036;-72
2023/04/27 01:22:31;;;;;;;17.25;4.28;;;16.20;90.00;;;;;;5091284;28;20047;-72
2023/04/27 01:25:35;;;;;;;9.48;3.88;;;;;;;;;;5091745;28;20051;-72
2023/04/27 01:28:39;;;;;;;7.75;3.60;;;17.00;90.30;;;;;;5091064;28;20376;-72
2023/04/27 01:31:43;;;;;;;11.73;4.25;;;;;;;;;;5090902;28;20055;-72
2023/04/27 01:34:48;;;;;;;13.50;3.78;;;;;;;;;;5090919;28;20028;-72
2023/04/27 01:37:52;;;;;;;19.10;4.45;;;;;;;;;;5091846;28;20040;-72
2023/04/27 01:41:00;;;;;;;9.80;4.63;;;;;;;;;;5091674;28;20047;-72
2023/04/27 01:44:05;;;;;;;9.88;5.00;;;14.40;88.40;;;;;;5091818;28;20043;-73
2023/04/27 01:47:09;;;;;;;11.10;4.53;;;;;;;;;;5090998;28;20043;-72
2023/04/27 01:50:13;;;;;;;11.35;5.22;;;14.50;88.30;;;;;;5091761;28;20055;-73
2023/04/27 01:53:17;;;;;;;12.18;4.82;;;;;;;;;;5090890;28;20035;-73
2023/04/27 01:56:21;;;;;;;15.57;5.53;;;;;;;;;;5091612;28;20035;-73
2023/04/27 01:59:25;;;;;;;11.38;6.70;;;17.60;90.70;;;;;;5090923;28;20043;-72
2023/04/27 02:02:30;;;;;;;11.80;6.63;;;;;;;;;;5090589;28;20039;-72
2023/04/27 02:05:34;;;;;;;13.55;6.45;;;;;;;;;;5090763;28;20044;-73
2023/04/27 02:08:38;;;;;;;11.75;5.72;;;14.00;90.10;;;;;;5090790;28;20039;-72
2023/04/27 02:11:45;;;;;;;10.75;5.20;;;;;;;;;;5090265;28;20411;-72
2023/04/27 02:14:50;;;;;;;12.20;5.07;;;;;;;;;;5090240;28;20036;-73
2023/04/27 02:17:54;;;;;;;9.23;4.68;;;13.90;90.10;;;;;;5090181;28;20105;-72
2023/04/27 02:20:58;;;;;;;11.38;4.13;;;13.80;90.00;;;;;;5078658;28;20039;-72
2023/04/27 02:24:03;;;;;;;10.93;4.00;;;16.30;90.90;;;;;;5089889;28;20522;-72
2023/04/27 02:27:07;;;;;;;6.55;4.20;;;;;;;;;;5090313;28;20051;-72
2023/04/27 02:30:11;;;;;;;9.02;4.22;;;13.90;90.20;;;;;;5090787;28;20040;-72
2023/04/27 02:33:16;;;;;;;9.63;4.47;;;13.80;90.20;;;;;;5089768;28;20051;-73
2023/04/27 02:36:19;;;;;;;7.43;4.90;;;13.70;90.20;;;;;;5091026;28;20149;-72
2023/04/27 02:39:24;;;;;;;10.60;5.13;;;;;;;;;;5090069;28;20047;-73
2023/04/27 02:42:29;;;;;;;9.27;4.85;;;13.60;90.50;;;;;;5090645;28;20040;-72
2023/04/27 02:45:37;;;;;;;6.72;4.68;;;13.60;90.60;;;;;;5091183;28;20047;-73
2023/04/27 02:48:43;;;;;;;8.70;4.22;;;13.50;90.70;;;;;;5090225;28;20059;-72
2023/04/27 02:51:47;;;;;;;8.18;4.55;;;13.30;90.80;;;;;;5089710;28;20047;-72
2023/04/27 02:54:51;;;;;;;8.25;5.35;;;;;;;;;;5091081;28;20384;-73
2023/04/27 02:57:55;;;;;;;7.65;4.20;;;13.30;90.80;;;;;;5090771;28;20040;-72
2023/04/27 03:00:59;;;;;;;9.23;4.38;;;13.00;90.70;;;;;;5090223;28;20040;-72
2023/04/27 03:04:03;;;;;;;8.35;4.20;;;13.20;90.90;;;;;;5089955;28;20055;-72
2023/04/27 03:07:07;;;;;;;6.88;3.72;;;13.20;90.80;;;;;;5090126;28;20383;-72
2023/04/27 03:10:11;;;;;;;5.68;3.53;;;;;;;;;;5089968;28;20047;-73
2023/04/27 03:13:15;;;;;;;9.48;4.10;;;13.20;90.50;;;;;;5090688;28;20079;-73
2023/04/27 03:16:20;;;;;;;5.55;3.58;;;13.30;90.60;;;;;;5089718;28;20047;-72
2023/04/27 03:19:25;;;;;;;9.75;3.95;;;13.30;90.40;;;;;;5090943;28;20047;-73
2023/04/27 03:22:29;;;;;;;7.30;4.85;;;;;;;;;;5094403;28;20047;-72
2023/04/27 03:25:33;;;;;;;10.13;5.13;;;13.70;90.70;;;;;;5094098;28;20044;-72
2023/04/27 03:28:38;;;;;;;11.07;4.70;;;13.20;90.80;;;;;;5094142;28;20035;-73
2023/04/27 03:31:42;;;;;;;7.95;4.10;;;13.50;91.20;;;;;;5093887;28;20059;-73
2023/04/27 03:34:46;;;;;;;8.25;4.25;;;13.10;91.10;;;;;;5093996;28;20039;-73
2023/04/27 03:37:50;;;;;;;10.48;4.85;;;13.00;91.00;;;;;;5093893;28;20047;-72
2023/04/27 03:40:54;;;;;;;8.75;4.40;;;;;;;;;;5094020;28;20047;-72
2023/04/27 03:43:58;;;;;;;9.25;4.50;;;;;;;;;;5093018;28;20036;-72
2023/04/27 03:47:07;;;;;;;9.48;5.22;;;12.80;91.40;;;;;;5093034;28;20036;-72
2023/04/27 03:50:13;;;;;;;12.02;5.25;;;12.70;91.50;;;;;;5092957;28;20043;-73
2023/04/27 03:53:17;;;;;;;12.07;4.45;;;13.20;91.80;;;;;;5093977;28;20055;-73
2023/04/27 03:56:22;;;;;;;10.25;4.38;;;12.70;91.40;;;;;;5093281;28;20039;-72
2023/04/27 03:59:29;;;;;;;15.13;5.18;;;12.80;91.40;;;;;;5093947;28;20506;-73
2023/04/27 04:02:33;;;;;;;10.40;4.47;;;12.90;91.60;;;;;;5093324;28;20522;-72
2023/04/27 04:05:37;;;;;;;15.00;5.18;;;12.90;91.40;;;;;;5092728;28;20051;-72
2023/04/27 04:08:41;;;;;;;10.35;4.85;;;12.90;91.40;;;;;;5092844;28;20502;-73
2023/04/27 04:11:45;;;;;;;11.70;4.70;;;12.80;91.30;;;;;;5092981;28;20051;-73
2023/04/27 04:14:51;;;;;;;14.23;7.38;;;13.00;91.40;;;;;;5092487;28;20039;-73
2023/04/27 04:17:55;;;;;;;18.13;5.45;;;12.80;91.30;;;;;;5092768;28;20047;-73
2023/04/27 04:20:59;;;;;;;8.40;3.75;;;13.00;90.30;;;;;;5092747;28;20047;-73
2023/04/27 04:24:03;;;;;;;9.35;3.97;;;13.00;89.10;;;;;;5092459;28;20051;-72
2023/04/27 04:27:08;;;;;;;7.63;4.05;;;12.80;87.80;;;;;;5093387;28;20043;-72
2023/04/27 04:30:12;;;;;;;13.65;5.45;;;15.50;88.10;;;;;;5092607;28;20055;-72
2023/04/27 04:33:16;;;;;;;12.20;5.32;;;13.10;86.50;;;;;;5092262;28;20529;-73
2023/04/27 04:36:20;;;;;;;10.05;5.60;;;;;;;;;;5092014;28;20063;-72
2023/04/27 04:39:32;;;;;;;12.68;6.65;;;12.90;87.50;;;;;;5092126;28;20036;-72
2023/04/27 04:42:36;;;;;;;18.90;8.10;;;12.80;87.40;;;;;;5091859;28;20039;-72
2023/04/27 04:45:41;;;;;;;25.08;10.82;;;12.90;88.30;;;;;;5091932;28;20047;-73
2023/04/27 04:48:45;;;;;;;31.67;12.55;;;12.80;88.40;;;;;;5091737;28;20506;-72
2023/04/27 04:51:49;;;;;;;37.50;14.60;;;13.00;88.30;;;;;;5091322;28;20066;-72
2023/04/27 04:54:54;;;;;;;33.45;12.48;;;13.40;87.70;;;;;;5092714;28;20494;-73
2023/04/27 04:57:58;;;;;;;23.58;11.10;;;14.10;86.20;;;;;;5092672;28;20039;-72
2023/04/27 05:01:05;;;;;;;21.27;9.63;;;14.80;82.80;;;;;;5091521;28;20048;-72
2023/04/27 05:04:09;;;;;;;16.33;6.68;;;15.40;79.70;;;;;;5092330;28;20047;-72
2023/04/27 05:07:13;;;;;;;16.45;6.32;;;16.10;79.20;;;;;;5092277;28;20035;-73
2023/04/27 05:10:18;;;;;;;17.13;9.15;;;18.00;75.50;;;;;;5093154;28;20043;-73
2023/04/27 05:13:23;;;;;;;18.25;6.90;;;17.80;75.90;;;;;;5092070;28;20047;-72
2023/04/27 05:16:27;;;;;;;11.48;5.20;;;19.80;71.20;;;;;;5092242;28;20039;-73
2023/04/27 05:19:31;;;;;;;13.02;4.28;;;20.30;69.80;;;;;;5092458;28;20047;-72
2023/04/27 05:22:35;;;;;;;12.98;4.88;;;20.20;70.00;;;;;;5092518;28;20055;-72
2023/04/27 05:25:42;;;;;;;17.33;5.35;;;;;;;;;;5092270;28;20059;-73
2023/04/27 05:28:48;;;;;;;13.38;6.40;;;20.20;69.60;;;;;;5091826;28;20043;-72
2023/04/27 05:31:52;;;;;;;20.42;5.00;;;20.10;69.70;;;;;;5091690;28;20055;-73
2023/04/27 05:34:56;;;;;;;19.42;5.30;;;19.50;71.10;;;;;;5091987;28;20055;-67
2023/04/27 05:38:00;;;;;;;19.65;5.28;;;19.00;72.00;;;;;;5092156;28;20047;-67
2023/04/27 05:41:04;;;;;;;15.48;5.15;;;18.80;72.80;;;;;;5091672;28;20392;-66
2023/04/27 05:44:08;;;;;;;46.85;9.32;;;18.30;72.40;;;;;;5090532;28;20055;-66
2023/04/27 05:47:12;;;;;;;11.77;5.25;;;18.20;72.80;;;;;;5091026;28;20134;-67
2023/04/27 05:50:16;;;;;;;10.63;5.53;;;18.10;71.60;;;;;;5091238;28;20054;-67
2023/04/27 05:53:20;;;;;;;16.30;6.80;;;17.60;71.50;;;;;;5091080;28;20403;-66
2023/04/27 05:56:25;;;;;;;19.00;7.30;;;17.40;73.60;;;;;;5091026;28;20490;-67
2023/04/27 05:59:29;;;;;;;17.25;6.90;;;17.60;73.40;;;;;;5091047;28;20502;-67
2023/04/27 06:02:33;;;;;;;23.85;7.72;;;17.80;73.00;;;;;;5089670;28;20046;-67
2023/04/27 06:05:37;;;;;;;17.23;6.72;;;18.00;73.50;;;;;;5091234;28;20047;-67
2023/04/27 06:08:41;;;;;;;15.18;6.47;;;18.10;72.90;;;;;;5091419;28;20047;-67
2023/04/27 06:11:46;;;;;;;20.73;7.63;;;18.20;73.80;;;;;;5089494;28;20066;-66
2023/04/27 06:14:50;;;;;;;21.00;9.07;;;18.60;73.60;;;;;;5088631;28;20047;-66
2023/04/27 06:17:54;;;;;;;25.08;9.80;;;19.10;74.90;;;;;;5090542;28;20047;-66
2023/04/27 06:21:00;;;;;;;19.98;8.13;;;19.50;75.50;;;;;;5090502;28;20059;-66
2023/04/27 06:24:04;;;;;;;26.65;8.10;;;19.70;74.80;;;;;;5090861;28;20039;-66
2023/04/27 06:27:09;;;;;;;29.27;8.45;;;19.90;74.80;;;;;;5090807;28;20400;-66
2023/04/27 06:30:12;;;;;;;30.48;8.02;;;20.10;73.60;;;;;;5090834;28;20047;-66
2023/04/27 06:33:17;;;;;;;30.95;8.43;;;20.40;73.90;;;;;;5090814;28;20055;-66
2023/04/27 06:36:21;;;;;;;24.88;8.43;;;20.70;72.40;;;;;;5091064;28;20572;-66
2023/04/27 06:39:25;;;;;;;33.42;8.02;;;20.90;71.60;;;;;;5090855;28;20055;-66
2023/04/27 06:42:29;;;;;;;23.50;6.85;;;20.90;70.00;;;;;;5091027;28;20047;-66
2023/04/27 06:45:33;;;;;;;26.67;7.28;;;21.00;69.30;;;;;;5090663;28;20054;-66
2023/04/27 06:48:37;;;;;;;18.30;6.93;;;20.90;69.10;;;;;;5090846;28;20047;-66
2023/04/27 06:51:41;;;;;;;15.02;6.03;;;20.80;69.30;;;;;;5090503;28;20055;-66
2023/04/27 06:54:48;;;;;;;21.60;6.32;;;20.90;68.60;;;;;;5093663;28;20043;-64
2023/04/27 06:57:53;;;;;;;23.30;5.95;;;21.20;67.80;;;;;;5094966;28;20047;-65
2023/04/27 07:00:57;;;;;;;13.73;5.32;;;21.50;67.30;;;;;;5094873;28;20422;-69
2023/04/27 07:04:02;;;;;;;13.07;4.63;;;21.70;66.70;;;;;;5094833;28;20479;-67
2023/04/27 07:07:06;;;;;;;11.77;5.25;;;21.90;67.50;;;;;;5094684;28;20047;-67
2023/04/27 07:10:10;;;;;;;17.33;5.63;;;22.20;65.00;;;;;;5093665;28;20043;-67
2023/04/27 07:13:14;;;;;;;11.85;4.15;;;22.30;66.30;;;;;;5094298;28;20062;-68
2023/04/27 07:16:19;;;;;;;8.82;3.85;;;22.50;64.90;;;;;;5094332;28;20067;-68
2023/04/27 07:19:22;;;;;;;13.63;4.35;;;22.50;62.80;;;;;;5094809;28;20051;-70
2023/04/27 07:22:27;;;;;;;9.50;3.45;;;22.40;62.50;;;;;;5094254;28;20440;-72
2023/04/27 07:25:32;;;;;;;8.32;3.58;;;22.70;63.90;;;;;;5094146;28;20059;-72
2023/04/27 07:28:35;;;;;;;11.27;4.40;;;23.10;62.70;;;;;;5094192;28;20035;-72
2023/04/27 07:31:40;;;;;;;10.65;3.80;;;23.00;62.80;;;;;;5094015;28;20059;-73
2023/04/27 07:34:43;;;;;;;10.50;3.30;;;23.10;63.80;;;;;;5094174;28;20047;-70
2023/04/27 07:37:48;;;;;;;12.85;3.08;;;23.50;63.20;;;;;;5093969;28;20047;-71
2023/04/27 07:40:53;;;;;;;9.77;2.97;;;23.70;62.50;;;;;;5093480;28;20509;-70
2023/04/27 07:43:57;;;;;;;9.50;2.33;;;23.60;62.00;;;;;;5094188;28;20039;-70
2023/04/27 07:47:02;;;;;;;13.00;2.72;;;23.60;61.70;;;;;;5093307;28;20395;-64
2023/04/27 07:50:07;;;;;;;6.72;1.77;;;23.80;60.70;;;;;;5093872;28;20039;-64
2023/04/27 07:53:11;;;;;;;9.50;2.00;;;23.80;60.70;;;;;;5093824;28;20047;-63
2023/04/27 07:56:15;;;;;;;4.35;1.83;;;24.00;59.80;;;;;;5094097;28;20051;-64
2023/04/27 07:59:20;;;;;;;8.25;2.10;;;24.00;59.70;;;;;;5093638;28;20043;-63
2023/04/27 08:02:29;;;;;;;9.52;2.30;;;24.20;60.60;;;;;;5093776;28;20060;-64
2023/04/27 08:05:33;;;;;;;6.93;2.15;;;24.30;60.10;;;;;;5092883;28;20047;-64
2023/04/27 08:08:37;;;;;;;6.00;2.25;;;24.50;60.00;;;;;;5093445;28;20050;-64
2023/04/27 08:11:41;;;;;;;8.32;2.22;;;24.50;58.80;;;;;;5093220;28;20051;-72
2023/04/27 08:14:45;;;;;;;9.85;2.90;;;24.40;58.50;;;;;;5093633;28;20043;-68
2023/04/27 08:17:50;;;;;;;13.15;2.47;;;24.60;61.90;;;;;;5093511;28;20039;-70
2023/04/27 08:20:54;;;;;;;10.35;2.90;;;24.60;59.00;;;;;;5092927;28;20043;-67
2023/04/27 08:23:58;;;;;;;16.95;2.80;;;24.50;58.70;;;;;;5093384;28;20055;-76
2023/04/27 08:27:02;;;;;;;10.93;2.80;;;24.30;58.20;;;;;;5052934;28;20072;-67
2023/04/27 08:30:07;;;;;;;13.30;2.47;;;24.40;62.50;;;;;;5052877;28;20147;-75
2023/04/27 08:33:12;;;;;;;9.50;2.40;;;24.50;63.30;;;;;;5052085;28;20592;-72
2023/04/27 08:36:17;;;;;;;7.90;1.98;;;24.50;58.00;;;;;;5052829;28;20044;-71
2023/04/27 08:39:23;;;;;;;4.78;1.60;;;24.40;57.50;;;;;;5052557;28;20508;-68
2023/04/27 08:42:29;;;;;;;6.75;1.98;;;24.40;56.90;;;;;;5052036;28;20044;-65
2023/04/27 08:45:33;;;;;;;7.22;1.80;;;24.50;57.30;;;;;;5052938;28;20052;-65
2023/04/27 08:48:37;;;;;;;6.50;3.70;;;24.60;56.10;;;;;;5050887;28;20052;-65
2023/04/27 08:51:45;;;;;;;8.25;2.00;;;24.40;54.60;;;;;;5052163;28;20052;-66
2023/04/27 08:54:50;;;;;;;4.38;1.83;;;24.40;54.60;;;;;;5050248;28;20547;-64
2023/04/27 08:57:56;;;;;;;9.85;1.98;;;24.20;54.50;;;;;;5052381;28;20051;-64
2023/04/27 09:01:05;;;;;;;7.20;1.35;;;24.20;53.10;;;;;;5051905;28;20040;-64
2023/04/27 09:04:10;;;;;;;3.42;1.02;;;24.00;49.50;;;;;;5052386;28;20056;-64
2023/04/27 09:07:16;;;;;;;4.00;1.33;;;23.80;47.50;;;;;;5052170;28;20052;-65
2023/04/27 09:10:22;;;;;;;7.82;1.35;;;23.50;47.70;;;;;;5052249;28;20044;-64
2023/04/27 09:13:37;;;;;;;4.57;1.20;;;23.50;49.60;;;;;;5051944;28;20048;-65
2023/04/27 09:16:42;;;;;;;7.10;1.33;;;23.40;49.60;;;;;;5051034;28;20040;-65
2023/04/27 09:19:46;;;;;;;2.78;1.50;;;23.40;50.70;;;;;;5051947;28;20060;-64
2023/04/27 09:22:53;;;;;;;4.38;1.40;;;23.50;51.20;;;;;;5051904;28;20040;-65
2023/04/27 09:26:00;;;;;;;2.45;1.42;;;23.40;50.30;;;;;;5076743;28;20051;-65
2023/04/27 09:29:04;;;;;;;1.88;1.10;;;23.30;49.80;;;;;;5092123;28;20054;-65
2023/04/27 09:32:16;;;;;;;3.67;0.90;;;23.10;49.60;;;;;;5091510;28;20051;-65
2023/04/27 09:35:25;;;;;;;7.90;0.90;;;23.10;48.40;;;;;;5091817;28;20035;-64
2023/04/27 09:38:30;;;;;;;5.72;1.27;;;23.20;48.00;;;;;;5092072;28;20047;-64
2023/04/27 09:41:34;;;;;;;2.90;1.33;;;23.20;48.40;;;;;;5091510;28;20039;-65
2023/04/27 09:44:38;;;;;;;6.68;1.23;;;23.40;49.30;;;;;;5091774;28;20388;-64
2023/04/27 09:47:43;;;;;;;3.00;1.30;;;23.40;49.50;;;;;;5091535;28;20043;-65
2023/04/27 09:50:49;;;;;;;4.55;1.15;;;23.40;49.50;;;;;;5091401;28;20052;-65
2023/04/27 09:53:57;;;;;;;7.80;1.50;;;23.30;50.10;;;;;;5091289;28;20055;-64
2023/04/27 09:57:26;;;;;;;4.05;1.00;;;23.40;51.20;;;;;;5091564;28;20062;-64
2023/04/27 10:01:03;;;;;;;3.25;1.10;;;23.60;50.60;;;;;;5091124;28;20560;-64
2023/04/27 10:04:26;;;;;;;3.92;1.13;;;23.70;51.10;;;;;;5091269;28;20150;-64
2023/04/27 10:07:32;;;;;;;5.80;1.70;;;24.00;51.80;;;;;;5090995;28;20035;-65
2023/04/27 10:10:47;;;;;;;3.00;1.42;;;24.20;51.40;;;;;;5091211;28;20582;-64
2023/04/27 10:13:54;;;;;;;4.03;1.50;;;24.40;52.20;;;;;;5090984;28;20047;-64
2023/04/27 10:16:58;;;;;;;3.47;1.40;;;24.50;52.40;;;;;;5091292;28;20062;-64
2023/04/27 10:20:06;;;;;;;4.53;1.63;;;24.70;52.10;;;;;;5091218;28;20392;-64
2023/04/27 10:23:20;;;;;;;9.25;1.88;;;24.80;51.90;;;;;;5091070;28;20499;-64
2023/04/27 10:26:26;;;;;;;8.98;1.45;;;24.90;51.80;;;;;;5090238;28;20051;-66
2023/04/27 10:29:49;;;;;;;5.45;1.50;;;24.90;52.40;;;;;;5089724;28;20506;-66
2023/04/27 10:32:56;;;;;;;5.70;1.95;;;25.00;52.20;;;;;;5090592;28;20510;-66
2023/04/27 10:36:00;;;;;;;3.97;1.77;;;25.10;52.90;;;;;;5091104;28;20035;-66
2023/04/27 10:39:19;;;;;;;4.35;1.60;;;25.10;53.00;;;;;;5090799;28;20051;-65
2023/04/27 10:42:27;;;;;;;3.70;1.50;;;25.10;52.50;;;;;;5090759;28;20499;-64
2023/04/27 10:45:33;;;;;;;7.35;2.17;;;25.10;53.20;;;;;;5090763;28;20047;-65
2023/04/27 10:48:42;;;;;;;3.65;2.17;;;25.00;54.50;;;;;;5089820;28;20047;-65
2023/04/27 10:51:47;;;;;;;4.45;2.40;;;25.00;54.80;;;;;;5090632;28;20059;-66
2023/04/27 10:54:51;;;;;;;8.75;2.42;;;25.00;54.00;;;;;;5090852;28;20051;-64
2023/04/27 10:57:56;;;;;;;6.13;2.08;;;24.90;55.20;;;;;;5090584;28;20051;-66
2023/04/27 11:01:00;;;;;;;5.72;2.28;;;24.90;55.80;;;;;;5090442;28;20047;-65
2023/04/27 11:04:04;;;;;;;5.35;2.28;;;24.90;55.40;;;;;;5090317;28;20495;-65
2023/04/27 11:07:09;;;;;;;10.05;3.50;;;24.90;55.10;;;;;;5089052;28;20051;-66
2023/04/27 11:10:18;;;;;;;8.38;2.60;;;24.80;55.70;;;;;;5089066;28;20142;-64
2023/04/27 11:13:24;;;;;;;6.68;2.20;;;24.70;55.40;;;;;;5089105;28;20078;-65
2023/04/27 11:16:31;;;;;;;7.13;2.78;;;24.70;56.30;;;;;;5090669;28;20043;-64
2023/04/27 11:19:48;;;;;;;7.25;2.08;;;24.60;56.30;;;;;;5089389;28;20047;-65
2023/04/27 11:22:52;;;;;;;5.22;1.92;;;24.60;56.70;;;;;;5090403;28;20054;-65
2023/04/27 11:25:58;;;;;;;3.53;1.70;;;24.60;56.90;;;;;;5090336;28;20071;-65
2023/04/27 11:29:12;;;;;;;7.35;2.30;;;24.60;57.00;;;;;;5090595;28;20051;-66
2023/04/27 11:32:24;;;;;;;9.00;2.78;;;24.60;57.40;;;;;;5090189;28;20051;-65
2023/04/27 11:35:34;;;;;;;9.45;4.30;;;24.60;57.50;;;;;;5090410;28;20086;-66
2023/04/27 11:38:41;;;;;;;7.13;2.40;;;24.60;58.00;;;;;;5090628;28;20047;-65
2023/04/27 11:41:45;;;;;;;6.30;2.22;;;24.60;58.50;;;;;;5093447;28;20047;-65
2023/04/27 11:44:56;;;;;;;8.90;1.83;;;24.60;57.40;;;;;;5094926;28;20047;-65
2023/04/27 11:48:02;;;;;;;7.78;1.80;;;24.70;58.10;;;;;;5094021;28;20396;-65
2023/04/27 11:51:09;;;;;;;5.75;2.15;;;24.60;58.10;;;;;;5093042;28;20059;-65
2023/04/27 11:54:14;;;;;;;7.28;2.95;;;24.60;58.20;;;;;;5093047;28;20134;-65
2023/04/27 11:57:28;;;;;;;4.10;1.83;;;24.60;58.30;;;;;;5093292;28;20043;-65
2023/04/27 12:00:32;;;;;;;6.03;1.70;;;24.60;58.10;;;;;;5093948;28;20043;-65
2023/04/27 12:03:36;;;;;;;4.40;1.70;;;24.50;58.00;;;;;;5093990;28;20039;-64
2023/04/27 12:06:41;;;;;;;8.10;2.10;;;24.50;58.70;;;;;;5094235;28;20062;-64
2023/04/27 12:09:45;;;;;;;8.23;2.22;;;24.50;58.40;;;;;;5093608;28;20044;-64
2023/04/27 12:12:49;;;;;;;12.02;2.22;;;24.50;59.30;;;;;;5092497;28;20526;-64
2023/04/27 12:15:54;;;;;;;6.47;2.28;;;24.50;60.40;;;;;;5093595;28;20051;-64
2023/04/27 12:18:58;;;;;;;4.88;2.22;;;24.50;61.10;;;;;;5093235;28;20047;-66
2023/04/27 12:22:03;;;;;;;12.70;2.67;;;24.30;60.70;;;;;;5092414;28;20063;-65
2023/04/27 12:25:07;;;;;;;12.80;2.35;;;24.30;61.20;;;;;;5092862;28;20062;-65
2023/04/27 12:28:11;;;;;;;7.15;2.03;;;24.30;61.30;;;;;;5092765;28;20059;-68
2023/04/27 12:31:15;;;;;;;11.77;2.03;;;24.20;60.80;;;;;;5091705;28;20047;-67
2023/04/27 12:34:20;;;;;;;14.52;1.92;;;24.30;60.00;;;;;;5093075;28;20403;-68
2023/04/27 12:37:24;;;;;;;6.28;1.95;;;24.30;59.80;;;;;;5092569;28;20039;-67
2023/04/27 12:40:29;;;;;;;5.85;1.98;;;24.30;59.80;;;;;;5092804;28;20047;-67
2023/04/27 12:43:36;;;;;;;3.22;1.30;;;24.20;59.30;;;;;;5092921;28;20043;-68
2023/04/27 12:46:41;;;;;;;3.22;1.52;;;24.20;58.10;;;;;;5092655;28;20150;-68
2023/04/27 12:49:45;;;;;;;7.38;2.10;;;24.20;58.10;;;;;;5092602;28;20047;-68
2023/04/27 12:52:50;;;;;;;8.85;1.92;;;24.10;57.50;;;;;;5092357;28;20055;-68
2023/04/27 12:55:54;;;;;;;8.13;1.55;;;24.10;57.50;;;;;;5092521;28;20043;-67
2023/04/27 12:58:58;;;;;;;11.98;1.80;;;24.00;57.20;;;;;;5092326;28;20043;-67
2023/04/27 13:02:02;;;;;;;6.80;1.70;;;23.80;56.30;;;;;;5092425;28;20039;-67
2023/04/27 13:05:07;;;;;;;4.40;1.23;;;23.70;58.50;;;;;;5092281;28;20035;-67
2023/04/27 13:08:11;;;;;;;6.85;2.17;;;23.70;57.30;;;;;;5092435;28;20057;-68
2023/04/27 13:11:16;;;;;;;4.53;1.20;;;23.60;57.40;;;;;;5092031;28;20823;-68
2023/04/27 13:14:20;;;;;;;6.72;1.10;;;23.60;57.30;;;;;;5092176;28;20055;-68
2023/04/27 13:17:24;;;;;;;5.93;1.40;;;23.60;58.40;;;;;;5092366;28;20046;-68
2023/04/27 13:20:27;;;;;;;6.53;1.40;;;23.60;57.40;;;;;;5091510;28;20054;-68
2023/04/27 13:23:31;;;;;;;9.13;1.50;;;23.50;58.30;;;;;;5092208;28;20380;-68
2023/04/27 13:26:35;;;;;;;16.63;3.30;;;23.40;58.20;;;;;;5091757;28;20383;-68
2023/04/27 13:29:39;;;;;;;6.72;1.08;;;23.30;59.20;;;;;;5092187;28;20071;-68
2023/04/27 13:32:43;;;;;;;4.97;0.95;;;23.30;59.20;;;;;;5091709;28;20059;-68
2023/04/27 13:35:47;;;;;;;14.63;2.03;;;23.20;59.40;;;;;;5092127;28;20411;-68
2023/04/27 13:38:51;;;;;;;17.67;2.28;;;23.20;60.10;;;;;;5092266;28;20043;-68
2023/04/27 13:41:56;;;;;;;54.33;7.45;;;23.10;59.70;;;;;;5091502;28;20039;-68
2023/04/27 13:45:00;;;;;;;51.70;5.65;;;23.20;59.60;;;;;;5091543;28;20043;-68
2023/04/27 13:48:05;;;;;;;20.05;3.83;;;23.20;59.90;;;;;;5091281;28;20043;-63
2023/04/27 13:51:09;;;;;;;39.33;4.72;;;23.20;59.90;;;;;;5091591;28;20047;-64
2023/04/27 13:54:13;;;;;;;10.90;2.17;;;23.30;59.60;;;;;;5091676;28;20050;-65
2023/04/27 13:57:17;;;;;;;15.27;2.22;;;23.20;59.60;;;;;;5091271;28;20067;-65
2023/04/27 14:00:21;;;;;;;17.25;3.00;;;23.20;59.20;;;;;;5091273;28;20047;-68
2023/04/27 14:03:25;;;;;;;18.42;3.47;;;23.30;60.80;;;;;;5090943;28;20110;-67
2023/04/27 14:06:30;;;;;;;3.63;1.40;;;23.30;60.50;;;;;;5090970;28;20047;-64
2023/04/27 14:09:34;;;;;;;12.85;1.95;;;23.30;61.40;;;;;;5090905;28;20054;-65
2023/04/27 14:12:39;;;;;;;4.72;1.67;;;23.30;62.60;;;;;;5090555;28;20046;-66
2023/04/27 14:15:43;;;;;;;11.98;2.03;;;23.30;62.00;;;;;;5090368;28;20035;-65
2023/04/27 14:18:47;;;;;;;49.78;3.53;;;23.40;63.70;;;;;;5091244;28;20055;-65
2023/04/27 14:21:51;;;;;;;22.25;2.78;;;23.40;63.90;;;;;;5091077;28;20384;-66
2023/04/27 14:24:55;;;;;;;36.58;3.72;;;23.30;64.60;;;;;;5090649;28;20399;-65
2023/04/27 14:28:04;;;;;;;9.45;1.80;;;23.30;65.80;;;;;;5090864;28;20043;-65
2023/04/27 14:31:08;;;;;;;13.43;1.95;;;23.30;65.50;;;;;;5090576;28;20048;-66
2023/04/27 14:34:13;;;;;;;7.38;1.83;;;23.20;65.40;;;;;;5090951;28;20039;-66
2023/04/27 14:37:17;;;;;;;46.35;3.90;;;23.20;68.10;;;;;;5090814;28;20044;-64
2023/04/27 14:40:21;;;;;;;8.70;2.15;;;23.00;68.80;;;;;;5090591;28;20418;-64
2023/04/27 14:43:25;;;;;;;11.77;1.90;;;23.00;69.40;;;;;;5090686;28;20059;-65
2023/04/27 14:46:29;;;;;;;6.65;1.80;;;22.90;70.00;;;;;;5089477;28;20047;-64
2023/04/27 14:49:33;;;;;;;9.32;1.58;;;22.90;70.70;;;;;;5090439;28;20047;-64
2023/04/27 14:52:37;;;;;;;10.18;1.67;;;22.80;70.70;;;;;;5090488;28;20510;-65
2023/04/27 14:55:44;;;;;;;8.70;1.77;;;22.70;71.50;;;;;;5090677;28;20039;-65
2023/04/27 14:58:49;;;;;;;7.30;1.75;;;22.60;71.60;;;;;;5090959;28;20051;-65
2023/04/27 15:01:53;;;;;;;13.05;2.00;;;22.60;72.00;;;;;;5089961;28;20046;-65
2023/04/27 15:04:57;;;;;;;9.65;1.77;;;22.60;72.10;;;;;;5089580;28;20090;-68
2023/04/27 15:08:02;;;;;;;8.95;2.10;;;22.50;72.80;;;;;;5089346;28;20043;-66
2023/04/27 15:11:06;;;;;;;11.55;2.45;;;22.50;73.50;;;;;;5089656;28;20051;-65
2023/04/27 15:14:10;;;;;;;7.80;1.73;;;22.50;74.10;;;;;;5089515;28;20051;-66
2023/04/27 15:17:15;;;;;;;14.57;4.30;;;22.50;74.80;;;;;;5094165;28;20375;-65
2023/04/27 15:20:19;;;;;;;9.35;2.70;;;22.50;74.90;;;;;;5093988;28;20058;-66
2023/04/27 15:23:24;;;;;;;9.88;2.15;;;22.40;75.30;;;;;;5094208;28;20051;-65
2023/04/27 15:26:28;;;;;;;9.57;2.17;;;22.40;75.60;;;;;;5094109;28;20159;-67
2023/04/27 15:29:32;;;;;;;22.85;3.05;;;22.30;75.90;;;;;;5094090;28;20430;-64
2023/04/27 15:32:36;;;;;;;7.00;1.85;;;22.30;76.30;;;;;;5093992;28;20513;-66
2023/04/27 15:35:40;;;;;;;14.32;2.30;;;22.30;76.30;;;;;;5094203;28;20514;-65
2023/04/27 15:38:44;;;;;;;9.60;2.65;;;22.30;75.70;;;;;;5094144;28;20062;-65
2023/04/27 15:41:48;;;;;;;8.18;2.30;;;22.30;76.30;;;;;;5094004;28;20051;-65
2023/04/27 15:44:52;;;;;;;23.27;2.80;;;22.20;75.50;;;;;;5093835;28;20043;-65
2023/04/27 15:47:56;;;;;;;11.07;2.20;;;22.20;75.40;;;;;;5094050;28;20042;-65
2023/04/27 15:51:00;;;;;;;16.30;2.15;;;22.20;74.80;;;;;;5093933;28;20058;-66
2023/04/27 15:54:04;;;;;;;18.75;2.10;;;22.20;74.30;;;;;;5093681;28;20051;-66
2023/04/27 15:57:08;;;;;;;10.52;1.77;;;22.10;73.60;;;;;;5093554;28;20043;-66
2023/04/27 16:00:15;;;;;;;15.60;2.80;;;22.10;73.60;;;;;;5093690;28;20043;-66
2023/04/27 16:03:19;;;;;;;10.52;2.92;;;22.10;73.70;;;;;;5093774;28;20051;-68
2023/04/27 16:06:32;;;;;;;4.28;1.75;;;22.00;73.80;;;;;;5093578;28;20502;-66
2023/04/27 16:09:36;;;;;;;7.28;2.10;;;22.00;74.30;;;;;;5093330;28;20059;-67